sensor_id;sensor_type;location;lat;lon;timestamp;P1;durP1;ratioP1;P2;durP2;ratioP2
79410;SDS011;69635;50.964;6.948;2023-08-21T01:34:51;11.25;;;5.75;;
79410;SDS011;69635;50.964;6.948;2023-08-21T01:37:40;7.28;;;5.18;;
79410;SDS011;69635;50.964;6.948;2023-08-21T02:09:20;13.30;;;5.65;;
79410;SDS011;69635;50.964;6.948;2023-08-21T02:33:56;10.77;;;5.88;;
79410;SDS011;69635;50.964;6.948;2023-08-21T02:36:21;10.30;;;5.57;;
79410;SDS011;69635;50.964;6.948;2023-08-21T02:38:46;10.53;;;5.90;;
79410;SDS011;69635;50.964;6.948;2023-08-21T02:41:11;10.83;;;5.50;;
79410;SDS011;69635;50.964;6.948;2023-08-21T02:43:37;8.80;;;6.57;;
79410;SDS011;69635;50.964;6.948;2023-08-21T02:46:02;8.87;;;5.83;;
79410;SDS011;69635;50.964;6.948;2023-08-21T02:48:27;8.98;;;6.03;;
79410;SDS011;69635;50.964;6.948;2023-08-21T02:50:52;10.73;;;6.57;;
79410;SDS011;69635;50.964;6.948;2023-08-21T02:53:18;10.17;;;6.17;;
79410;SDS011;69635;50.964;6.948;2023-08-21T02:55:43;8.37;;;5.83;;
79410;SDS011;69635;50.964;6.948;2023-08-21T02:58:08;7.10;;;5.20;;
79410;SDS011;69635;50.964;6.948;2023-08-21T03:00:34;11.68;;;6.00;;
79410;SDS011;69635;50.964;6.948;2023-08-21T03:02:59;9.38;;;5.43;;
79410;SDS011;69635;50.964;6.948;2023-08-21T03:05:24;9.20;;;4.90;;
79410;SDS011;69635;50.964;6.948;2023-08-21T03:07:49;10.23;;;5.10;;
79410;SDS011;69635;50.964;6.948;2023-08-21T03:10:15;8.60;;;6.23;;
79410;SDS011;69635;50.964;6.948;2023-08-21T03:12:40;8.38;;;5.75;;
79410;SDS011;69635;50.964;6.948;2023-08-21T03:15:05;8.50;;;5.53;;
79410;SDS011;69635;50.964;6.948;2023-08-21T03:17:31;7.95;;;4.85;;
79410;SDS011;69635;50.964;6.948;2023-08-21T03:19:56;7.38;;;5.07;;
79410;SDS011;69635;50.964;6.948;2023-08-21T03:22:22;7.90;;;5.13;;
79410;SDS011;69635;50.964;6.948;2023-08-21T03:24:47;8.67;;;5.03;;
79410;SDS011;69635;50.964;6.948;2023-08-21T03:27:14;9.07;;;5.63;;
79410;SDS011;69635;50.964;6.948;2023-08-21T03:29:40;6.40;;;4.70;;
79410;SDS011;69635;50.964;6.948;2023-08-21T03:32:05;9.05;;;5.07;;
79410;SDS011;69635;50.964;6.948;2023-08-21T03:34:30;10.33;;;5.77;;
79410;SDS011;69635;50.964;6.948;2023-08-21T03:36:55;7.67;;;4.90;;
79410;SDS011;69635;50.964;6.948;2023-08-21T03:39:21;7.23;;;4.90;;
79410;SDS011;69635;50.964;6.948;2023-08-21T03:41:46;12.10;;;6.00;;
79410;SDS011;69635;50.964;6.948;2023-08-21T03:44:11;8.60;;;5.40;;
79410;SDS011;69635;50.964;6.948;2023-08-21T03:46:36;12.40;;;5.50;;
79410;SDS011;69635;50.964;6.948;2023-08-21T03:49:02;8.67;;;4.97;;
79410;SDS011;69635;50.964;6.948;2023-08-21T03:51:27;8.30;;;5.40;;
79410;SDS011;69635;50.964;6.948;2023-08-21T03:53:52;6.67;;;5.07;;
79410;SDS011;69635;50.964;6.948;2023-08-21T03:56:17;7.60;;;5.13;;
79410;SDS011;69635;50.964;6.948;2023-08-21T03:58:44;8.85;;;5.15;;
79410;SDS011;69635;50.964;6.948;2023-08-21T04:01:09;7.37;;;4.90;;
79410;SDS011;69635;50.964;6.948;2023-08-21T04:03:35;7.72;;;4.90;;
79410;SDS011;69635;50.964;6.948;2023-08-21T04:06:01;7.78;;;5.57;;
79410;SDS011;69635;50.964;6.948;2023-08-21T04:08:26;8.60;;;5.32;;
79410;SDS011;69635;50.964;6.948;2023-08-21T04:10:51;7.67;;;5.03;;
79410;SDS011;69635;50.964;6.948;2023-08-21T04:13:18;7.32;;;5.18;;
79410;SDS011;69635;50.964;6.948;2023-08-21T04:15:47;8.02;;;5.18;;
79410;SDS011;69635;50.964;6.948;2023-08-21T04:18:13;6.78;;;5.00;;
79410;SDS011;69635;50.964;6.948;2023-08-21T04:20:38;9.37;;;5.57;;
79410;SDS011;69635;50.964;6.948;2023-08-21T04:23:03;8.27;;;5.40;;
79410;SDS011;69635;50.964;6.948;2023-08-21T04:25:28;10.70;;;5.33;;
79410;SDS011;69635;50.964;6.948;2023-08-21T04:27:54;10.63;;;5.17;;
79410;SDS011;69635;50.964;6.948;2023-08-21T04:30:19;9.82;;;5.53;;
79410;SDS011;69635;50.964;6.948;2023-08-21T04:32:44;9.48;;;5.72;;
79410;SDS011;69635;50.964;6.948;2023-08-21T04:35:10;8.15;;;4.97;;
79410;SDS011;69635;50.964;6.948;2023-08-21T04:37:37;13.77;;;7.30;;
79410;SDS011;69635;50.964;6.948;2023-08-21T04:40:02;9.43;;;5.53;;
79410;SDS011;69635;50.964;6.948;2023-08-21T04:42:28;8.65;;;5.38;;
79410;SDS011;69635;50.964;6.948;2023-08-21T04:44:53;8.93;;;5.77;;
79410;SDS011;69635;50.964;6.948;2023-08-21T04:47:27;9.77;;;5.20;;
79410;SDS011;69635;50.964;6.948;2023-08-21T04:49:52;9.07;;;5.72;;
79410;SDS011;69635;50.964;6.948;2023-08-21T04:52:18;9.38;;;5.85;;
79410;SDS011;69635;50.964;6.948;2023-08-21T04:54:43;11.93;;;6.05;;
79410;SDS011;69635;50.964;6.948;2023-08-21T04:57:09;11.93;;;6.30;;
79410;SDS011;69635;50.964;6.948;2023-08-21T04:59:34;9.80;;;6.45;;
79410;SDS011;69635;50.964;6.948;2023-08-21T05:02:00;11.60;;;6.25;;
79410;SDS011;69635;50.964;6.948;2023-08-21T05:04:25;6.75;;;5.60;;
79410;SDS011;69635;50.964;6.948;2023-08-21T05:06:50;9.00;;;5.40;;
79410;SDS011;69635;50.964;6.948;2023-08-21T05:09:16;13.03;;;5.87;;
79410;SDS011;69635;50.964;6.948;2023-08-21T05:11:41;12.55;;;5.43;;
79410;SDS011;69635;50.964;6.948;2023-08-21T05:14:06;10.03;;;5.93;;
79410;SDS011;69635;50.964;6.948;2023-08-21T05:16:31;9.50;;;5.70;;
79410;SDS011;69635;50.964;6.948;2023-08-21T05:18:57;10.88;;;5.38;;
79410;SDS011;69635;50.964;6.948;2023-08-21T05:21:22;9.50;;;5.37;;
79410;SDS011;69635;50.964;6.948;2023-08-21T05:23:48;10.93;;;5.67;;
79410;SDS011;69635;50.964;6.948;2023-08-21T05:26:14;11.43;;;5.72;;
79410;SDS011;69635;50.964;6.948;2023-08-21T05:28:39;8.20;;;5.63;;
79410;SDS011;69635;50.964;6.948;2023-08-21T05:31:04;10.63;;;5.70;;
79410;SDS011;69635;50.964;6.948;2023-08-21T05:33:29;11.23;;;6.07;;
79410;SDS011;69635;50.964;6.948;2023-08-21T05:35:56;7.85;;;5.13;;
79410;SDS011;69635;50.964;6.948;2023-08-21T05:38:21;8.30;;;5.65;;
79410;SDS011;69635;50.964;6.948;2023-08-21T05:40:47;11.03;;;6.27;;
79410;SDS011;69635;50.964;6.948;2023-08-21T05:43:13;8.98;;;5.15;;
79410;SDS011;69635;50.964;6.948;2023-08-21T05:45:38;12.60;;;5.95;;
79410;SDS011;69635;50.964;6.948;2023-08-21T05:48:03;11.43;;;5.97;;
79410;SDS011;69635;50.964;6.948;2023-08-21T05:50:29;11.23;;;5.38;;
79410;SDS011;69635;50.964;6.948;2023-08-21T05:52:54;8.70;;;6.27;;
79410;SDS011;69635;50.964;6.948;2023-08-21T05:55:23;11.73;;;6.70;;
79410;SDS011;69635;50.964;6.948;2023-08-21T05:57:48;10.13;;;5.93;;
79410;SDS011;69635;50.964;6.948;2023-08-21T06:00:13;10.73;;;5.78;;
79410;SDS011;69635;50.964;6.948;2023-08-21T06:02:39;10.18;;;5.95;;
79410;SDS011;69635;50.964;6.948;2023-08-21T06:05:04;9.03;;;4.93;;
79410;SDS011;69635;50.964;6.948;2023-08-21T06:07:30;9.07;;;4.93;;
79410;SDS011;69635;50.964;6.948;2023-08-21T06:09:55;7.37;;;4.73;;
79410;SDS011;69635;50.964;6.948;2023-08-21T06:12:20;10.43;;;5.93;;
79410;SDS011;69635;50.964;6.948;2023-08-21T06:14:45;8.10;;;4.87;;
79410;SDS011;69635;50.964;6.948;2023-08-21T06:17:11;8.80;;;5.23;;
79410;SDS011;69635;50.964;6.948;2023-08-21T06:19:36;7.65;;;4.90;;
79410;SDS011;69635;50.964;6.948;2023-08-21T06:22:01;7.57;;;4.43;;
79410;SDS011;69635;50.964;6.948;2023-08-21T06:24:26;8.30;;;4.47;;
79410;SDS011;69635;50.964;6.948;2023-08-21T06:26:52;8.10;;;4.60;;
79410;SDS011;69635;50.964;6.948;2023-08-21T06:29:18;8.25;;;4.97;;
79410;SDS011;69635;50.964;6.948;2023-08-21T06:31:45;9.90;;;4.32;;
79410;SDS011;69635;50.964;6.948;2023-08-21T06:34:10;9.17;;;5.20;;
79410;SDS011;69635;50.964;6.948;2023-08-21T06:36:35;7.13;;;4.20;;
79410;SDS011;69635;50.964;6.948;2023-08-21T06:39:01;9.23;;;4.90;;
79410;SDS011;69635;50.964;6.948;2023-08-21T06:41:26;8.10;;;4.67;;
79410;SDS011;69635;50.964;6.948;2023-08-21T06:43:52;12.80;;;5.00;;
79410;SDS011;69635;50.964;6.948;2023-08-21T06:46:17;10.83;;;5.27;;
79410;SDS011;69635;50.964;6.948;2023-08-21T06:48:42;7.63;;;4.90;;
79410;SDS011;69635;50.964;6.948;2023-08-21T06:51:11;10.27;;;5.22;;
79410;SDS011;69635;50.964;6.948;2023-08-21T06:53:36;7.28;;;4.93;;
79410;SDS011;69635;50.964;6.948;2023-08-21T06:56:01;7.70;;;4.45;;
79410;SDS011;69635;50.964;6.948;2023-08-21T06:58:27;7.68;;;5.10;;
79410;SDS011;69635;50.964;6.948;2023-08-21T07:00:55;7.95;;;4.50;;
79410;SDS011;69635;50.964;6.948;2023-08-21T07:03:21;8.10;;;4.63;;
79410;SDS011;69635;50.964;6.948;2023-08-21T07:05:46;6.88;;;4.60;;
79410;SDS011;69635;50.964;6.948;2023-08-21T07:08:13;10.45;;;4.90;;
79410;SDS011;69635;50.964;6.948;2023-08-21T07:10:38;7.47;;;4.70;;
79410;SDS011;69635;50.964;6.948;2023-08-21T07:13:03;8.73;;;4.55;;
79410;SDS011;69635;50.964;6.948;2023-08-21T07:15:29;8.50;;;4.30;;
79410;SDS011;69635;50.964;6.948;2023-08-21T07:17:54;9.02;;;4.80;;
79410;SDS011;69635;50.964;6.948;2023-08-21T07:20:20;7.72;;;4.95;;
79410;SDS011;69635;50.964;6.948;2023-08-21T07:22:46;9.40;;;5.40;;
79410;SDS011;69635;50.964;6.948;2023-08-21T07:25:12;9.25;;;5.53;;
79410;SDS011;69635;50.964;6.948;2023-08-21T07:27:37;12.07;;;5.03;;
79410;SDS011;69635;50.964;6.948;2023-08-21T07:30:03;8.85;;;4.75;;
79410;SDS011;69635;50.964;6.948;2023-08-21T07:32:31;8.35;;;5.00;;
79410;SDS011;69635;50.964;6.948;2023-08-21T07:34:56;11.02;;;5.47;;
79410;SDS011;69635;50.964;6.948;2023-08-21T07:37:22;8.17;;;5.30;;
79410;SDS011;69635;50.964;6.948;2023-08-21T07:39:47;6.45;;;4.93;;
79410;SDS011;69635;50.964;6.948;2023-08-21T07:42:12;11.27;;;5.20;;
79410;SDS011;69635;50.964;6.948;2023-08-21T07:44:38;6.00;;;4.27;;
79410;SDS011;69635;50.964;6.948;2023-08-21T07:47:04;7.55;;;4.13;;
79410;SDS011;69635;50.964;6.948;2023-08-21T07:49:29;6.53;;;4.30;;
79410;SDS011;69635;50.964;6.948;2023-08-21T07:51:54;9.77;;;4.82;;
79410;SDS011;69635;50.964;6.948;2023-08-21T07:54:20;9.77;;;4.82;;
79410;SDS011;69635;50.964;6.948;2023-08-21T07:56:45;7.15;;;4.88;;
79410;SDS011;69635;50.964;6.948;2023-08-21T07:59:11;8.18;;;5.35;;
79410;SDS011;69635;50.964;6.948;2023-08-21T08:01:37;8.97;;;5.70;;
79410;SDS011;69635;50.964;6.948;2023-08-21T08:04:02;9.27;;;5.25;;
79410;SDS011;69635;50.964;6.948;2023-08-21T08:06:27;11.27;;;5.60;;
79410;SDS011;69635;50.964;6.948;2023-08-21T08:08:52;8.70;;;5.27;;
79410;SDS011;69635;50.964;6.948;2023-08-21T08:11:18;9.85;;;5.68;;
79410;SDS011;69635;50.964;6.948;2023-08-21T08:13:43;9.32;;;5.63;;
79410;SDS011;69635;50.964;6.948;2023-08-21T08:16:08;9.87;;;5.13;;
79410;SDS011;69635;50.964;6.948;2023-08-21T08:18:34;8.70;;;5.60;;
79410;SDS011;69635;50.964;6.948;2023-08-21T08:20:59;8.65;;;6.25;;
79410;SDS011;69635;50.964;6.948;2023-08-21T08:23:24;7.13;;;6.00;;
79410;SDS011;69635;50.964;6.948;2023-08-21T08:25:50;10.43;;;6.03;;
79410;SDS011;69635;50.964;6.948;2023-08-21T08:28:15;7.17;;;5.50;;
79410;SDS011;69635;50.964;6.948;2023-08-21T08:30:40;8.32;;;5.38;;
79410;SDS011;69635;50.964;6.948;2023-08-21T08:33:06;8.68;;;4.88;;
79410;SDS011;69635;50.964;6.948;2023-08-21T08:35:31;10.30;;;5.55;;
79410;SDS011;69635;50.964;6.948;2023-08-21T08:37:56;6.97;;;5.50;;
79410;SDS011;69635;50.964;6.948;2023-08-21T08:40:22;9.18;;;5.50;;
79410;SDS011;69635;50.964;6.948;2023-08-21T08:42:47;8.70;;;5.73;;
79410;SDS011;69635;50.964;6.948;2023-08-21T08:45:12;9.20;;;5.20;;
79410;SDS011;69635;50.964;6.948;2023-08-21T08:47:38;10.63;;;5.40;;
79410;SDS011;69635;50.964;6.948;2023-08-21T08:50:05;9.25;;;5.35;;
79410;SDS011;69635;50.964;6.948;2023-08-21T08:52:34;15.98;;;6.90;;
79410;SDS011;69635;50.964;6.948;2023-08-21T08:54:59;12.32;;;6.50;;
79410;SDS011;69635;50.964;6.948;2023-08-21T08:57:24;9.07;;;5.72;;
79410;SDS011;69635;50.964;6.948;2023-08-21T08:59:50;7.78;;;5.30;;
79410;SDS011;69635;50.964;6.948;2023-08-21T09:02:15;10.23;;;5.63;;
79410;SDS011;69635;50.964;6.948;2023-08-21T09:04:40;11.02;;;4.50;;
79410;SDS011;69635;50.964;6.948;2023-08-21T09:07:08;8.60;;;4.40;;
79410;SDS011;69635;50.964;6.948;2023-08-21T09:09:40;7.88;;;4.65;;
79410;SDS011;69635;50.964;6.948;2023-08-21T09:12:09;7.88;;;5.78;;
79410;SDS011;69635;50.964;6.948;2023-08-21T09:14:34;12.95;;;6.75;;
79410;SDS011;69635;50.964;6.948;2023-08-21T09:17:00;10.48;;;6.50;;
79410;SDS011;69635;50.964;6.948;2023-08-21T09:19:31;12.25;;;6.35;;
79410;SDS011;69635;50.964;6.948;2023-08-21T09:21:56;15.90;;;8.20;;
79410;SDS011;69635;50.964;6.948;2023-08-21T09:24:22;10.95;;;6.85;;
79410;SDS011;69635;50.964;6.948;2023-08-21T09:26:48;13.25;;;7.88;;
79410;SDS011;69635;50.964;6.948;2023-08-21T09:29:14;11.68;;;6.10;;
79410;SDS011;69635;50.964;6.948;2023-08-21T09:31:39;11.20;;;6.30;;
79410;SDS011;69635;50.964;6.948;2023-08-21T09:34:04;12.77;;;7.15;;
79410;SDS011;69635;50.964;6.948;2023-08-21T09:36:30;14.17;;;6.43;;
79410;SDS011;69635;50.964;6.948;2023-08-21T09:38:55;10.25;;;5.57;;
79410;SDS011;69635;50.964;6.948;2023-08-21T09:41:21;14.30;;;6.67;;
79410;SDS011;69635;50.964;6.948;2023-08-21T09:43:46;9.50;;;5.78;;
79410;SDS011;69635;50.964;6.948;2023-08-21T09:46:15;9.75;;;6.35;;
79410;SDS011;69635;50.964;6.948;2023-08-21T09:48:41;13.27;;;6.53;;
79410;SDS011;69635;50.964;6.948;2023-08-21T09:51:08;10.75;;;5.78;;
79410;SDS011;69635;50.964;6.948;2023-08-21T09:53:34;12.68;;;6.13;;
79410;SDS011;69635;50.964;6.948;2023-08-21T09:56:00;15.02;;;7.50;;
79410;SDS011;69635;50.964;6.948;2023-08-21T09:58:28;12.52;;;6.25;;
79410;SDS011;69635;50.964;6.948;2023-08-21T10:00:56;15.15;;;8.57;;
79410;SDS011;69635;50.964;6.948;2023-08-21T10:03:22;13.13;;;8.60;;
79410;SDS011;69635;50.964;6.948;2023-08-21T10:05:47;16.42;;;9.55;;
79410;SDS011;69635;50.964;6.948;2023-08-21T10:08:13;13.15;;;8.38;;
79410;SDS011;69635;50.964;6.948;2023-08-21T10:10:40;12.82;;;7.32;;
79410;SDS011;69635;50.964;6.948;2023-08-21T10:13:05;10.93;;;7.15;;
79410;SDS011;69635;50.964;6.948;2023-08-21T10:15:32;18.65;;;9.80;;
79410;SDS011;69635;50.964;6.948;2023-08-21T10:17:58;21.50;;;12.27;;
79410;SDS011;69635;50.964;6.948;2023-08-21T10:20:42;19.63;;;11.38;;
79410;SDS011;69635;50.964;6.948;2023-08-21T10:23:07;15.93;;;9.00;;
79410;SDS011;69635;50.964;6.948;2023-08-21T10:25:32;18.07;;;11.13;;
79410;SDS011;69635;50.964;6.948;2023-08-21T10:28:05;16.95;;;8.98;;
79410;SDS011;69635;50.964;6.948;2023-08-21T10:30:31;16.90;;;10.13;;
79410;SDS011;69635;50.964;6.948;2023-08-21T10:32:57;14.10;;;9.27;;
79410;SDS011;69635;50.964;6.948;2023-08-21T10:35:24;15.68;;;9.15;;
79410;SDS011;69635;50.964;6.948;2023-08-21T10:40:30;19.48;;;12.02;;
79410;SDS011;69635;50.964;6.948;2023-08-21T10:42:55;15.43;;;9.90;;
79410;SDS011;69635;50.964;6.948;2023-08-21T10:45:20;19.67;;;10.67;;
79410;SDS011;69635;50.964;6.948;2023-08-21T10:47:45;16.60;;;9.80;;
79410;SDS011;69635;50.964;6.948;2023-08-21T10:50:14;14.32;;;8.80;;
79410;SDS011;69635;50.964;6.948;2023-08-21T10:52:40;18.83;;;10.10;;
79410;SDS011;69635;50.964;6.948;2023-08-21T10:55:10;14.60;;;9.48;;
79410;SDS011;69635;50.964;6.948;2023-08-21T10:57:36;15.00;;;10.23;;
79410;SDS011;69635;50.964;6.948;2023-08-21T11:02:29;16.52;;;9.18;;
79410;SDS011;69635;50.964;6.948;2023-08-21T11:04:54;15.30;;;8.68;;
79410;SDS011;69635;50.964;6.948;2023-08-21T11:07:20;14.00;;;9.18;;
79410;SDS011;69635;50.964;6.948;2023-08-21T11:09:46;14.93;;;9.13;;
79410;SDS011;69635;50.964;6.948;2023-08-21T11:12:12;12.45;;;8.35;;
79410;SDS011;69635;50.964;6.948;2023-08-21T11:14:38;13.85;;;8.45;;
79410;SDS011;69635;50.964;6.948;2023-08-21T11:17:03;13.95;;;8.63;;
79410;SDS011;69635;50.964;6.948;2023-08-21T11:19:32;17.37;;;9.33;;
79410;SDS011;69635;50.964;6.948;2023-08-21T11:24:29;13.48;;;7.68;;
79410;SDS011;69635;50.964;6.948;2023-08-21T11:26:54;19.08;;;8.00;;
79410;SDS011;69635;50.964;6.948;2023-08-21T11:29:20;11.57;;;8.23;;
79410;SDS011;69635;50.964;6.948;2023-08-21T11:31:45;14.02;;;8.18;;
79410;SDS011;69635;50.964;6.948;2023-08-21T11:34:17;12.18;;;7.68;;
79410;SDS011;69635;50.964;6.948;2023-08-21T11:36:43;12.43;;;7.13;;
79410;SDS011;69635;50.964;6.948;2023-08-21T11:39:08;12.17;;;7.50;;
79410;SDS011;69635;50.964;6.948;2023-08-21T11:41:52;11.93;;;7.30;;
79410;SDS011;69635;50.964;6.948;2023-08-21T11:44:17;9.60;;;6.75;;
79410;SDS011;69635;50.964;6.948;2023-08-21T11:46:42;11.13;;;7.17;;
79410;SDS011;69635;50.964;6.948;2023-08-21T11:49:08;13.33;;;9.10;;
79410;SDS011;69635;50.964;6.948;2023-08-21T11:51:37;10.02;;;7.35;;
79410;SDS011;69635;50.964;6.948;2023-08-21T11:54:03;11.68;;;7.45;;
79410;SDS011;69635;50.964;6.948;2023-08-21T11:56:29;12.10;;;6.80;;
79410;SDS011;69635;50.964;6.948;2023-08-21T11:58:54;11.27;;;6.70;;
79410;SDS011;69635;50.964;6.948;2023-08-21T12:01:19;10.93;;;5.90;;
79410;SDS011;69635;50.964;6.948;2023-08-21T12:03:45;12.18;;;5.50;;
79410;SDS011;69635;50.964;6.948;2023-08-21T12:06:11;6.85;;;5.15;;
79410;SDS011;69635;50.964;6.948;2023-08-21T12:08:37;8.35;;;5.25;;
79410;SDS011;69635;50.964;6.948;2023-08-21T12:11:02;7.10;;;5.25;;
79410;SDS011;69635;50.964;6.948;2023-08-21T12:13:29;10.37;;;4.87;;
79410;SDS011;69635;50.964;6.948;2023-08-21T12:15:54;6.78;;;4.15;;
79410;SDS011;69635;50.964;6.948;2023-08-21T12:18:20;5.83;;;4.00;;
79410;SDS011;69635;50.964;6.948;2023-08-21T12:20:45;7.87;;;4.60;;
79410;SDS011;69635;50.964;6.948;2023-08-21T12:23:10;8.47;;;4.60;;
79410;SDS011;69635;50.964;6.948;2023-08-21T12:25:36;9.60;;;4.72;;
79410;SDS011;69635;50.964;6.948;2023-08-21T12:28:01;11.47;;;3.63;;
79410;SDS011;69635;50.964;6.948;2023-08-21T12:30:26;11.03;;;4.67;;
79410;SDS011;69635;50.964;6.948;2023-08-21T12:32:51;9.88;;;4.72;;
79410;SDS011;69635;50.964;6.948;2023-08-21T12:35:17;9.13;;;4.30;;
79410;SDS011;69635;50.964;6.948;2023-08-21T12:37:42;8.82;;;4.40;;
79410;SDS011;69635;50.964;6.948;2023-08-21T12:40:07;5.10;;;3.83;;
79410;SDS011;69635;50.964;6.948;2023-08-21T12:42:33;7.70;;;3.85;;
79410;SDS011;69635;50.964;6.948;2023-08-21T12:44:59;5.87;;;3.40;;
79410;SDS011;69635;50.964;6.948;2023-08-21T12:47:24;7.03;;;3.50;;
79410;SDS011;69635;50.964;6.948;2023-08-21T12:49:49;7.43;;;4.15;;
79410;SDS011;69635;50.964;6.948;2023-08-21T12:52:14;6.03;;;3.80;;
79410;SDS011;69635;50.964;6.948;2023-08-21T12:54:40;9.63;;;4.60;;
79410;SDS011;69635;50.964;6.948;2023-08-21T12:57:05;6.77;;;3.33;;
79410;SDS011;69635;50.964;6.948;2023-08-21T12:59:31;5.85;;;3.45;;
79410;SDS011;69635;50.964;6.948;2023-08-21T13:01:58;6.00;;;4.10;;
79410;SDS011;69635;50.964;6.948;2023-08-21T13:04:23;5.72;;;3.00;;
79410;SDS011;69635;50.964;6.948;2023-08-21T13:06:48;6.85;;;3.00;;
79410;SDS011;69635;50.964;6.948;2023-08-21T13:09:14;8.33;;;3.70;;
79410;SDS011;69635;50.964;6.948;2023-08-21T13:11:39;6.23;;;3.60;;
79410;SDS011;69635;50.964;6.948;2023-08-21T13:14:04;5.83;;;3.13;;
79410;SDS011;69635;50.964;6.948;2023-08-21T13:16:29;4.33;;;3.00;;
79410;SDS011;69635;50.964;6.948;2023-08-21T13:18:54;5.73;;;2.90;;
79410;SDS011;69635;50.964;6.948;2023-08-21T13:21:20;5.50;;;3.20;;
79410;SDS011;69635;50.964;6.948;2023-08-21T13:23:45;4.47;;;2.80;;
79410;SDS011;69635;50.964;6.948;2023-08-21T13:26:10;5.53;;;3.10;;
79410;SDS011;69635;50.964;6.948;2023-08-21T13:28:35;8.27;;;3.00;;
79410;SDS011;69635;50.964;6.948;2023-08-21T13:31:01;5.20;;;2.83;;
79410;SDS011;69635;50.964;6.948;2023-08-21T13:33:26;4.63;;;2.83;;
79410;SDS011;69635;50.964;6.948;2023-08-21T13:35:51;6.13;;;2.93;;
79410;SDS011;69635;50.964;6.948;2023-08-21T13:38:16;4.80;;;2.60;;
79410;SDS011;69635;50.964;6.948;2023-08-21T13:40:42;5.30;;;2.80;;
79410;SDS011;69635;50.964;6.948;2023-08-21T13:43:07;4.45;;;2.40;;
79410;SDS011;69635;50.964;6.948;2023-08-21T13:45:34;6.70;;;2.78;;
79410;SDS011;69635;50.964;6.948;2023-08-21T13:48:00;8.13;;;2.73;;
79410;SDS011;69635;50.964;6.948;2023-08-21T13:50:25;4.73;;;2.53;;
79410;SDS011;69635;50.964;6.948;2023-08-21T13:52:50;5.80;;;2.63;;
79410;SDS011;69635;50.964;6.948;2023-08-21T13:55:16;3.40;;;2.55;;
79410;SDS011;69635;50.964;6.948;2023-08-21T13:57:41;3.60;;;2.45;;
79410;SDS011;69635;50.964;6.948;2023-08-21T14:00:08;6.78;;;2.75;;
79410;SDS011;69635;50.964;6.948;2023-08-21T14:02:36;5.72;;;3.00;;
79410;SDS011;69635;50.964;6.948;2023-08-21T14:05:02;5.73;;;2.40;;
79410;SDS011;69635;50.964;6.948;2023-08-21T14:07:29;4.63;;;2.55;;
79410;SDS011;69635;50.964;6.948;2023-08-21T14:09:54;7.90;;;2.53;;
79410;SDS011;69635;50.964;6.948;2023-08-21T14:12:20;8.13;;;2.63;;
79410;SDS011;69635;50.964;6.948;2023-08-21T14:14:45;9.20;;;2.77;;
79410;SDS011;69635;50.964;6.948;2023-08-21T14:17:10;6.83;;;3.00;;
79410;SDS011;69635;50.964;6.948;2023-08-21T14:19:35;9.70;;;3.23;;
79410;SDS011;69635;50.964;6.948;2023-08-21T14:22:01;6.00;;;2.53;;
79410;SDS011;69635;50.964;6.948;2023-08-21T14:24:26;5.72;;;2.67;;
79410;SDS011;69635;50.964;6.948;2023-08-21T14:26:52;5.05;;;3.10;;
79410;SDS011;69635;50.964;6.948;2023-08-21T14:29:20;4.35;;;2.40;;
79410;SDS011;69635;50.964;6.948;2023-08-21T14:31:45;7.25;;;3.05;;
79410;SDS011;69635;50.964;6.948;2023-08-21T14:34:12;4.63;;;2.53;;
79410;SDS011;69635;50.964;6.948;2023-08-21T14:36:37;7.38;;;3.40;;
79410;SDS011;69635;50.964;6.948;2023-08-21T14:39:05;8.10;;;2.63;;
79410;SDS011;69635;50.964;6.948;2023-08-21T14:41:31;4.00;;;2.50;;
79410;SDS011;69635;50.964;6.948;2023-08-21T14:43:56;4.88;;;2.53;;
79410;SDS011;69635;50.964;6.948;2023-08-21T14:46:21;4.90;;;2.70;;
79410;SDS011;69635;50.964;6.948;2023-08-21T14:48:47;8.73;;;3.25;;
79410;SDS011;69635;50.964;6.948;2023-08-21T14:51:12;4.73;;;3.10;;
79410;SDS011;69635;50.964;6.948;2023-08-21T14:53:37;4.67;;;2.60;;
79410;SDS011;69635;50.964;6.948;2023-08-21T14:56:03;5.53;;;1.93;;
79410;SDS011;69635;50.964;6.948;2023-08-21T14:58:28;5.63;;;2.30;;
79410;SDS011;69635;50.964;6.948;2023-08-21T15:00:54;4.27;;;2.27;;
79410;SDS011;69635;50.964;6.948;2023-08-21T15:03:19;3.83;;;2.20;;
79410;SDS011;69635;50.964;6.948;2023-08-21T15:05:44;3.33;;;2.30;;
79410;SDS011;69635;50.964;6.948;2023-08-21T15:08:10;3.17;;;2.03;;
79410;SDS011;69635;50.964;6.948;2023-08-21T15:10:35;6.33;;;2.10;;
79410;SDS011;69635;50.964;6.948;2023-08-21T15:13:00;4.13;;;2.33;;
79410;SDS011;69635;50.964;6.948;2023-08-21T15:15:26;6.80;;;2.58;;
79410;SDS011;69635;50.964;6.948;2023-08-21T15:17:51;6.90;;;2.00;;
79410;SDS011;69635;50.964;6.948;2023-08-21T15:20:17;5.10;;;2.25;;
79410;SDS011;69635;50.964;6.948;2023-08-21T15:22:42;4.35;;;2.63;;
79410;SDS011;69635;50.964;6.948;2023-08-21T15:25:10;6.70;;;2.20;;
79410;SDS011;69635;50.964;6.948;2023-08-21T15:27:36;4.15;;;2.38;;
79410;SDS011;69635;50.964;6.948;2023-08-21T15:30:02;5.53;;;2.17;;
79410;SDS011;69635;50.964;6.948;2023-08-21T15:32:27;6.45;;;2.47;;
79410;SDS011;69635;50.964;6.948;2023-08-21T15:34:53;5.00;;;2.15;;
79410;SDS011;69635;50.964;6.948;2023-08-21T15:37:18;3.03;;;1.67;;
79410;SDS011;69635;50.964;6.948;2023-08-21T15:39:43;7.20;;;4.13;;
79410;SDS011;69635;50.964;6.948;2023-08-21T15:42:09;5.80;;;2.57;;
79410;SDS011;69635;50.964;6.948;2023-08-21T15:44:34;6.72;;;2.28;;
79410;SDS011;69635;50.964;6.948;2023-08-21T15:46:59;5.82;;;2.10;;
79410;SDS011;69635;50.964;6.948;2023-08-21T15:49:25;7.17;;;2.80;;
79410;SDS011;69635;50.964;6.948;2023-08-21T15:51:50;4.03;;;2.30;;
79410;SDS011;69635;50.964;6.948;2023-08-21T15:54:18;7.45;;;2.30;;
79410;SDS011;69635;50.964;6.948;2023-08-21T15:56:43;4.47;;;1.90;;
79410;SDS011;69635;50.964;6.948;2023-08-21T15:59:08;4.35;;;1.92;;
79410;SDS011;69635;50.964;6.948;2023-08-21T16:01:34;4.20;;;1.90;;
79410;SDS011;69635;50.964;6.948;2023-08-21T16:03:59;4.43;;;1.80;;
79410;SDS011;69635;50.964;6.948;2023-08-21T16:06:24;3.27;;;2.43;;
79410;SDS011;69635;50.964;6.948;2023-08-21T16:08:50;5.32;;;2.05;;
79410;SDS011;69635;50.964;6.948;2023-08-21T16:11:15;5.13;;;2.20;;
79410;SDS011;69635;50.964;6.948;2023-08-21T16:13:41;5.13;;;2.55;;
79410;SDS011;69635;50.964;6.948;2023-08-21T16:16:07;5.70;;;2.72;;
79410;SDS011;69635;50.964;6.948;2023-08-21T16:18:32;4.60;;;2.60;;
79410;SDS011;69635;50.964;6.948;2023-08-21T16:21:02;7.72;;;2.97;;
79410;SDS011;69635;50.964;6.948;2023-08-21T16:23:27;2.83;;;2.13;;
79410;SDS011;69635;50.964;6.948;2023-08-21T16:25:52;3.50;;;2.40;;
79410;SDS011;69635;50.964;6.948;2023-08-21T16:28:18;8.00;;;2.85;;
79410;SDS011;69635;50.964;6.948;2023-08-21T16:30:43;4.50;;;2.47;;
79410;SDS011;69635;50.964;6.948;2023-08-21T16:33:08;6.27;;;2.07;;
79410;SDS011;69635;50.964;6.948;2023-08-21T16:35:34;4.43;;;2.03;;
79410;SDS011;69635;50.964;6.948;2023-08-21T16:37:59;4.10;;;2.00;;
79410;SDS011;69635;50.964;6.948;2023-08-21T16:40:24;3.95;;;2.22;;
79410;SDS011;69635;50.964;6.948;2023-08-21T16:42:50;7.38;;;2.00;;
79410;SDS011;69635;50.964;6.948;2023-08-21T16:45:16;6.45;;;2.10;;
79410;SDS011;69635;50.964;6.948;2023-08-21T16:47:41;3.90;;;2.05;;
79410;SDS011;69635;50.964;6.948;2023-08-21T16:52:35;5.55;;;2.08;;
79410;SDS011;69635;50.964;6.948;2023-08-21T16:55:01;7.75;;;2.10;;
79410;SDS011;69635;50.964;6.948;2023-08-21T16:57:26;5.37;;;2.27;;
79410;SDS011;69635;50.964;6.948;2023-08-21T16:59:51;3.30;;;1.90;;
79410;SDS011;69635;50.964;6.948;2023-08-21T17:02:16;5.10;;;2.10;;
79410;SDS011;69635;50.964;6.948;2023-08-21T17:04:45;4.57;;;1.85;;
79410;SDS011;69635;50.964;6.948;2023-08-21T17:07:11;5.80;;;2.10;;
79410;SDS011;69635;50.964;6.948;2023-08-21T17:09:36;5.10;;;2.23;;